sensor_id;sensor_type;location;lat;lon;timestamp;P1;durP1;ratioP1;P2;durP2;ratioP2
52306;SDS011;38249;48.920;12.882;2023-01-23T00:02:02;31.63;;;16.25;;
52306;SDS011;38249;48.920;12.882;2023-01-23T00:04:28;31.40;;;15.57;;
52306;SDS011;38249;48.920;12.882;2023-01-23T00:06:55;31.98;;;16.08;;
52306;SDS011;38249;48.920;12.882;2023-01-23T00:09:21;34.05;;;16.65;;
52306;SDS011;38249;48.920;12.882;2023-01-23T00:11:47;34.28;;;16.83;;
52306;SDS011;38249;48.920;12.882;2023-01-23T00:14:15;34.75;;;15.75;;
52306;SDS011;38249;48.920;12.882;2023-01-23T00:16:42;30.98;;;15.57;;
52306;SDS011;38249;48.920;12.882;2023-01-23T00:19:09;33.70;;;17.15;;
52306;SDS011;38249;48.920;12.882;2023-01-23T00:21:35;32.92;;;16.95;;
52306;SDS011;38249;48.920;12.882;2023-01-23T00:24:02;33.45;;;15.82;;
52306;SDS011;38249;48.920;12.882;2023-01-23T00:26:29;33.38;;;16.17;;
52306;SDS011;38249;48.920;12.882;2023-01-23T00:28:57;31.85;;;17.05;;
52306;SDS011;38249;48.920;12.882;2023-01-23T00:31:26;33.40;;;16.48;;
52306;SDS011;38249;48.920;12.882;2023-01-23T00:33:55;30.80;;;15.23;;
52306;SDS011;38249;48.920;12.882;2023-01-23T00:36:23;26.33;;;14.48;;
52306;SDS011;38249;48.920;12.882;2023-01-23T00:38:52;25.05;;;14.77;;
52306;SDS011;38249;48.920;12.882;2023-01-23T00:41:19;26.52;;;14.50;;
52306;SDS011;38249;48.920;12.882;2023-01-23T00:43:45;32.00;;;16.50;;
52306;SDS011;38249;48.920;12.882;2023-01-23T00:46:12;28.02;;;16.60;;
52306;SDS011;38249;48.920;12.882;2023-01-23T00:48:40;26.63;;;14.40;;
52306;SDS011;38249;48.920;12.882;2023-01-23T00:51:06;32.42;;;15.93;;
52306;SDS011;38249;48.920;12.882;2023-01-23T00:53:33;29.17;;;15.02;;
52306;SDS011;38249;48.920;12.882;2023-01-23T00:55:59;26.17;;;13.70;;
52306;SDS011;38249;48.920;12.882;2023-01-23T00:58:26;29.25;;;13.95;;
52306;SDS011;38249;48.920;12.882;2023-01-23T01:00:52;25.60;;;13.90;;
52306;SDS011;38249;48.920;12.882;2023-01-23T01:03:19;27.95;;;14.95;;
52306;SDS011;38249;48.920;12.882;2023-01-23T01:05:46;23.95;;;13.63;;
52306;SDS011;38249;48.920;12.882;2023-01-23T01:08:13;28.58;;;15.02;;
52306;SDS011;38249;48.920;12.882;2023-01-23T01:10:40;23.15;;;12.02;;
52306;SDS011;38249;48.920;12.882;2023-01-23T01:13:07;22.70;;;13.20;;
52306;SDS011;38249;48.920;12.882;2023-01-23T01:15:34;23.13;;;12.23;;
52306;SDS011;38249;48.920;12.882;2023-01-23T01:18:02;22.83;;;12.85;;
52306;SDS011;38249;48.920;12.882;2023-01-23T01:20:29;21.42;;;11.23;;
52306;SDS011;38249;48.920;12.882;2023-01-23T01:22:57;27.25;;;13.15;;
52306;SDS011;38249;48.920;12.882;2023-01-23T01:25:24;25.02;;;12.18;;
52306;SDS011;38249;48.920;12.882;2023-01-23T01:27:51;22.35;;;12.10;;
52306;SDS011;38249;48.920;12.882;2023-01-23T01:30:19;21.25;;;12.18;;
52306;SDS011;38249;48.920;12.882;2023-01-23T01:32:46;18.17;;;10.10;;
52306;SDS011;38249;48.920;12.882;2023-01-23T01:35:12;21.75;;;10.50;;
52306;SDS011;38249;48.920;12.882;2023-01-23T01:37:39;19.35;;;9.98;;
52306;SDS011;38249;48.920;12.882;2023-01-23T01:40:09;18.00;;;9.73;;
52306;SDS011;38249;48.920;12.882;2023-01-23T01:42:38;12.98;;;8.48;;
52306;SDS011;38249;48.920;12.882;2023-01-23T01:45:06;13.68;;;7.45;;
52306;SDS011;38249;48.920;12.882;2023-01-23T01:47:47;10.15;;;6.32;;
52306;SDS011;38249;48.920;12.882;2023-01-23T01:50:14;10.73;;;6.95;;
52306;SDS011;38249;48.920;12.882;2023-01-23T01:52:40;10.63;;;6.60;;
52306;SDS011;38249;48.920;12.882;2023-01-23T01:55:09;8.02;;;4.93;;
52306;SDS011;38249;48.920;12.882;2023-01-23T01:57:37;10.30;;;5.85;;
52306;SDS011;38249;48.920;12.882;2023-01-23T02:00:09;18.45;;;9.05;;
52306;SDS011;38249;48.920;12.882;2023-01-23T02:02:38;32.05;;;15.27;;
52306;SDS011;38249;48.920;12.882;2023-01-23T02:05:09;28.88;;;14.45;;
52306;SDS011;38249;48.920;12.882;2023-01-23T02:07:39;28.98;;;14.00;;
52306;SDS011;38249;48.920;12.882;2023-01-23T02:10:11;24.83;;;13.18;;
52306;SDS011;38249;48.920;12.882;2023-01-23T02:12:38;19.33;;;10.32;;
52306;SDS011;38249;48.920;12.882;2023-01-23T02:15:05;19.65;;;10.73;;
52306;SDS011;38249;48.920;12.882;2023-01-23T02:17:33;28.92;;;14.32;;
52306;SDS011;38249;48.920;12.882;2023-01-23T02:20:04;27.85;;;13.52;;
52306;SDS011;38249;48.920;12.882;2023-01-23T02:22:39;20.15;;;10.60;;
52306;SDS011;38249;48.920;12.882;2023-01-23T02:25:15;23.58;;;12.23;;
52306;SDS011;38249;48.920;12.882;2023-01-23T02:27:52;24.27;;;11.63;;
52306;SDS011;38249;48.920;12.882;2023-01-23T02:30:19;19.13;;;11.20;;
52306;SDS011;38249;48.920;12.882;2023-01-23T02:32:46;19.70;;;11.35;;
52306;SDS011;38249;48.920;12.882;2023-01-23T02:35:14;24.52;;;12.25;;
52306;SDS011;38249;48.920;12.882;2023-01-23T02:37:45;23.75;;;12.63;;
52306;SDS011;38249;48.920;12.882;2023-01-23T02:40:14;18.58;;;9.00;;
52306;SDS011;38249;48.920;12.882;2023-01-23T02:42:41;17.83;;;9.57;;
52306;SDS011;38249;48.920;12.882;2023-01-23T02:45:11;19.00;;;9.70;;
52306;SDS011;38249;48.920;12.882;2023-01-23T02:47:38;15.75;;;8.65;;
52306;SDS011;38249;48.920;12.882;2023-01-23T02:50:04;13.63;;;7.22;;
52306;SDS011;38249;48.920;12.882;2023-01-23T02:52:31;12.25;;;6.30;;
52306;SDS011;38249;48.920;12.882;2023-01-23T02:54:58;10.98;;;7.03;;
52306;SDS011;38249;48.920;12.882;2023-01-23T02:57:24;8.27;;;5.60;;
52306;SDS011;38249;48.920;12.882;2023-01-23T02:59:51;5.65;;;4.28;;
52306;SDS011;38249;48.920;12.882;2023-01-23T03:02:37;9.63;;;6.30;;
52306;SDS011;38249;48.920;12.882;2023-01-23T03:05:03;12.68;;;7.90;;
52306;SDS011;38249;48.920;12.882;2023-01-23T03:07:30;14.27;;;7.85;;
52306;SDS011;38249;48.920;12.882;2023-01-23T03:09:57;9.65;;;5.22;;
52306;SDS011;38249;48.920;12.882;2023-01-23T03:12:23;9.90;;;5.38;;
52306;SDS011;38249;48.920;12.882;2023-01-23T03:14:50;13.00;;;7.47;;
52306;SDS011;38249;48.920;12.882;2023-01-23T03:17:18;10.48;;;6.70;;
52306;SDS011;38249;48.920;12.882;2023-01-23T03:19:47;16.77;;;9.70;;
52306;SDS011;38249;48.920;12.882;2023-01-23T03:22:13;15.88;;;9.55;;
52306;SDS011;38249;48.920;12.882;2023-01-23T03:24:40;18.13;;;10.10;;
52306;SDS011;38249;48.920;12.882;2023-01-23T03:27:06;15.60;;;9.65;;
52306;SDS011;38249;48.920;12.882;2023-01-23T03:29:33;10.30;;;6.85;;
52306;SDS011;38249;48.920;12.882;2023-01-23T03:32:17;7.20;;;4.97;;
52306;SDS011;38249;48.920;12.882;2023-01-23T03:34:44;10.25;;;5.72;;
52306;SDS011;38249;48.920;12.882;2023-01-23T03:37:13;6.20;;;4.10;;
52306;SDS011;38249;48.920;12.882;2023-01-23T03:39:41;8.48;;;5.13;;
52306;SDS011;38249;48.920;12.882;2023-01-23T03:42:25;5.45;;;4.95;;
52306;SDS011;38249;48.920;12.882;2023-01-23T03:44:52;5.97;;;4.10;;
52306;SDS011;38249;48.920;12.882;2023-01-23T03:47:18;6.57;;;4.85;;
52306;SDS011;38249;48.920;12.882;2023-01-23T03:49:47;7.05;;;3.80;;
52306;SDS011;38249;48.920;12.882;2023-01-23T03:52:13;7.63;;;4.43;;
52306;SDS011;38249;48.920;12.882;2023-01-23T03:54:40;6.25;;;3.78;;
52306;SDS011;38249;48.920;12.882;2023-01-23T03:57:07;9.30;;;5.35;;
52306;SDS011;38249;48.920;12.882;2023-01-23T03:59:33;9.30;;;5.80;;
52306;SDS011;38249;48.920;12.882;2023-01-23T04:02:00;21.98;;;12.82;;
52306;SDS011;38249;48.920;12.882;2023-01-23T04:04:28;27.25;;;17.70;;
52306;SDS011;38249;48.920;12.882;2023-01-23T04:06:56;12.00;;;8.05;;
52306;SDS011;38249;48.920;12.882;2023-01-23T04:09:23;6.80;;;5.13;;
52306;SDS011;38249;48.920;12.882;2023-01-23T04:11:51;6.85;;;4.75;;
52306;SDS011;38249;48.920;12.882;2023-01-23T04:14:18;11.77;;;6.72;;
52306;SDS011;38249;48.920;12.882;2023-01-23T04:16:44;11.25;;;6.18;;
52306;SDS011;38249;48.920;12.882;2023-01-23T04:19:11;8.73;;;5.13;;
52306;SDS011;38249;48.920;12.882;2023-01-23T04:21:37;7.00;;;5.20;;
52306;SDS011;38249;48.920;12.882;2023-01-23T04:24:06;6.53;;;4.35;;
52306;SDS011;38249;48.920;12.882;2023-01-23T04:26:32;5.80;;;4.32;;
52306;SDS011;38249;48.920;12.882;2023-01-23T04:28:59;7.82;;;4.78;;
52306;SDS011;38249;48.920;12.882;2023-01-23T04:31:26;7.50;;;4.90;;
52306;SDS011;38249;48.920;12.882;2023-01-23T04:33:52;8.20;;;4.80;;
52306;SDS011;38249;48.920;12.882;2023-01-23T04:36:19;9.88;;;5.32;;
52306;SDS011;38249;48.920;12.882;2023-01-23T04:38:45;8.88;;;5.10;;
52306;SDS011;38249;48.920;12.882;2023-01-23T04:41:14;7.75;;;4.85;;
52306;SDS011;38249;48.920;12.882;2023-01-23T04:43:44;8.20;;;5.82;;
52306;SDS011;38249;48.920;12.882;2023-01-23T04:46:10;8.18;;;5.47;;
52306;SDS011;38249;48.920;12.882;2023-01-23T04:48:37;11.40;;;6.70;;
52306;SDS011;38249;48.920;12.882;2023-01-23T04:51:04;13.15;;;8.30;;
52306;SDS011;38249;48.920;12.882;2023-01-23T04:53:30;10.15;;;6.60;;
52306;SDS011;38249;48.920;12.882;2023-01-23T04:55:57;8.48;;;4.55;;
52306;SDS011;38249;48.920;12.882;2023-01-23T04:58:25;11.82;;;6.43;;
52306;SDS011;38249;48.920;12.882;2023-01-23T05:00:52;10.65;;;6.30;;
52306;SDS011;38249;48.920;12.882;2023-01-23T05:03:18;12.27;;;7.20;;
52306;SDS011;38249;48.920;12.882;2023-01-23T05:05:47;11.48;;;6.93;;
52306;SDS011;38249;48.920;12.882;2023-01-23T05:08:13;14.80;;;8.13;;
52306;SDS011;38249;48.920;12.882;2023-01-23T05:10:40;12.88;;;7.75;;
52306;SDS011;38249;48.920;12.882;2023-01-23T05:13:06;8.68;;;6.95;;
52306;SDS011;38249;48.920;12.882;2023-01-23T05:15:35;9.40;;;6.32;;
52306;SDS011;38249;48.920;12.882;2023-01-23T05:18:02;10.55;;;6.72;;
52306;SDS011;38249;48.920;12.882;2023-01-23T05:20:28;18.45;;;8.75;;
52306;SDS011;38249;48.920;12.882;2023-01-23T05:22:55;15.45;;;8.95;;
52306;SDS011;38249;48.920;12.882;2023-01-23T05:25:22;14.82;;;8.10;;
52306;SDS011;38249;48.920;12.882;2023-01-23T05:27:50;14.13;;;8.00;;
52306;SDS011;38249;48.920;12.882;2023-01-23T05:30:16;13.98;;;8.40;;
52306;SDS011;38249;48.920;12.882;2023-01-23T05:32:47;12.30;;;7.47;;
52306;SDS011;38249;48.920;12.882;2023-01-23T05:35:14;12.98;;;7.50;;
52306;SDS011;38249;48.920;12.882;2023-01-23T05:37:41;13.75;;;8.30;;
52306;SDS011;38249;48.920;12.882;2023-01-23T05:40:09;15.18;;;8.85;;
52306;SDS011;38249;48.920;12.882;2023-01-23T05:42:38;12.98;;;7.68;;
52306;SDS011;38249;48.920;12.882;2023-01-23T05:45:05;18.33;;;11.20;;
52306;SDS011;38249;48.920;12.882;2023-01-23T05:47:32;16.38;;;9.05;;
52306;SDS011;38249;48.920;12.882;2023-01-23T05:50:00;18.10;;;9.68;;
52306;SDS011;38249;48.920;12.882;2023-01-23T05:52:27;25.38;;;14.52;;
52306;SDS011;38249;48.920;12.882;2023-01-23T05:54:53;20.10;;;11.68;;
52306;SDS011;38249;48.920;12.882;2023-01-23T05:57:20;15.55;;;10.18;;
52306;SDS011;38249;48.920;12.882;2023-01-23T05:59:46;18.70;;;11.02;;
52306;SDS011;38249;48.920;12.882;2023-01-23T06:02:13;20.52;;;12.23;;
52306;SDS011;38249;48.920;12.882;2023-01-23T06:04:40;16.63;;;11.43;;
52306;SDS011;38249;48.920;12.882;2023-01-23T06:07:08;19.42;;;11.13;;
52306;SDS011;38249;48.920;12.882;2023-01-23T06:09:38;17.98;;;10.90;;
52306;SDS011;38249;48.920;12.882;2023-01-23T06:12:05;15.80;;;9.82;;
52306;SDS011;38249;48.920;12.882;2023-01-23T06:14:32;15.57;;;9.65;;
52306;SDS011;38249;48.920;12.882;2023-01-23T06:16:58;14.50;;;8.77;;
52306;SDS011;38249;48.920;12.882;2023-01-23T06:19:25;15.50;;;8.90;;
52306;SDS011;38249;48.920;12.882;2023-01-23T06:21:51;13.52;;;7.78;;
52306;SDS011;38249;48.920;12.882;2023-01-23T06:24:19;13.70;;;8.23;;
52306;SDS011;38249;48.920;12.882;2023-01-23T06:26:46;14.35;;;8.60;;
52306;SDS011;38249;48.920;12.882;2023-01-23T06:29:12;23.08;;;14.60;;
52306;SDS011;38249;48.920;12.882;2023-01-23T06:31:39;15.30;;;9.70;;
52306;SDS011;38249;48.920;12.882;2023-01-23T06:34:05;29.25;;;18.23;;
52306;SDS011;38249;48.920;12.882;2023-01-23T06:36:32;21.67;;;12.43;;
52306;SDS011;38249;48.920;12.882;2023-01-23T06:39:00;25.55;;;13.10;;
52306;SDS011;38249;48.920;12.882;2023-01-23T06:41:27;17.98;;;10.18;;
52306;SDS011;38249;48.920;12.882;2023-01-23T06:43:54;15.52;;;9.88;;
52306;SDS011;38249;48.920;12.882;2023-01-23T06:46:20;13.93;;;8.70;;
52306;SDS011;38249;48.920;12.882;2023-01-23T06:48:47;15.07;;;9.90;;
52306;SDS011;38249;48.920;12.882;2023-01-23T06:51:13;16.77;;;9.30;;
52306;SDS011;38249;48.920;12.882;2023-01-23T06:53:40;15.65;;;9.75;;
52306;SDS011;38249;48.920;12.882;2023-01-23T06:56:07;16.25;;;9.23;;
52306;SDS011;38249;48.920;12.882;2023-01-23T06:58:35;14.68;;;9.38;;
52306;SDS011;38249;48.920;12.882;2023-01-23T07:01:07;11.60;;;8.13;;
52306;SDS011;38249;48.920;12.882;2023-01-23T07:03:34;18.52;;;11.23;;
52306;SDS011;38249;48.920;12.882;2023-01-23T07:06:01;19.08;;;12.35;;
52306;SDS011;38249;48.920;12.882;2023-01-23T07:08:30;12.32;;;8.52;;
52306;SDS011;38249;48.920;12.882;2023-01-23T07:10:57;10.45;;;6.55;;
52306;SDS011;38249;48.920;12.882;2023-01-23T07:13:23;10.63;;;6.82;;
52306;SDS011;38249;48.920;12.882;2023-01-23T07:15:51;10.32;;;6.90;;
52306;SDS011;38249;48.920;12.882;2023-01-23T07:18:18;15.35;;;9.70;;
52306;SDS011;38249;48.920;12.882;2023-01-23T07:20:44;13.65;;;8.88;;
52306;SDS011;38249;48.920;12.882;2023-01-23T07:23:11;13.75;;;8.93;;
52306;SDS011;38249;48.920;12.882;2023-01-23T07:25:38;15.48;;;9.32;;
52306;SDS011;38249;48.920;12.882;2023-01-23T07:28:05;15.18;;;9.60;;
52306;SDS011;38249;48.920;12.882;2023-01-23T07:30:31;15.77;;;10.10;;
52306;SDS011;38249;48.920;12.882;2023-01-23T07:33:00;10.88;;;7.55;;
52306;SDS011;38249;48.920;12.882;2023-01-23T07:35:26;13.07;;;8.00;;
52306;SDS011;38249;48.920;12.882;2023-01-23T07:37:53;13.48;;;7.05;;
52306;SDS011;38249;48.920;12.882;2023-01-23T07:40:19;9.95;;;7.05;;
52306;SDS011;38249;48.920;12.882;2023-01-23T07:42:46;11.40;;;7.35;;
52306;SDS011;38249;48.920;12.882;2023-01-23T07:45:12;44.95;;;23.83;;
52306;SDS011;38249;48.920;12.882;2023-01-23T07:47:39;34.45;;;19.90;;
52306;SDS011;38249;48.920;12.882;2023-01-23T07:50:08;43.40;;;26.35;;
52306;SDS011;38249;48.920;12.882;2023-01-23T07:52:37;33.50;;;21.33;;
52306;SDS011;38249;48.920;12.882;2023-01-23T07:55:05;42.80;;;25.95;;
52306;SDS011;38249;48.920;12.882;2023-01-23T07:57:32;35.08;;;21.48;;
52306;SDS011;38249;48.920;12.882;2023-01-23T07:59:58;24.98;;;15.60;;
52306;SDS011;38249;48.920;12.882;2023-01-23T08:02:25;30.48;;;19.98;;
52306;SDS011;38249;48.920;12.882;2023-01-23T08:04:52;52.65;;;30.88;;
52306;SDS011;38249;48.920;12.882;2023-01-23T08:07:19;28.52;;;17.33;;
52306;SDS011;38249;48.920;12.882;2023-01-23T08:09:46;23.13;;;15.50;;
52306;SDS011;38249;48.920;12.882;2023-01-23T08:12:13;18.73;;;12.07;;
52306;SDS011;38249;48.920;12.882;2023-01-23T08:14:39;49.90;;;28.02;;
52306;SDS011;38249;48.920;12.882;2023-01-23T08:17:06;16.52;;;12.05;;
52306;SDS011;38249;48.920;12.882;2023-01-23T08:19:32;21.83;;;13.77;;
52306;SDS011;38249;48.920;12.882;2023-01-23T08:21:59;19.67;;;12.38;;
52306;SDS011;38249;48.920;12.882;2023-01-23T08:24:27;21.65;;;13.85;;
52306;SDS011;38249;48.920;12.882;2023-01-23T08:26:53;21.13;;;13.32;;
52306;SDS011;38249;48.920;12.882;2023-01-23T08:29:19;18.10;;;12.02;;
52306;SDS011;38249;48.920;12.882;2023-01-23T08:31:46;17.38;;;11.63;;
52306;SDS011;38249;48.920;12.882;2023-01-23T08:34:12;16.55;;;12.30;;
52306;SDS011;38249;48.920;12.882;2023-01-23T08:36:40;19.33;;;12.82;;
52306;SDS011;38249;48.920;12.882;2023-01-23T08:39:06;35.67;;;22.45;;
52306;SDS011;38249;48.920;12.882;2023-01-23T08:41:34;29.58;;;18.63;;
52306;SDS011;38249;48.920;12.882;2023-01-23T08:44:01;30.55;;;19.50;;
52306;SDS011;38249;48.920;12.882;2023-01-23T08:46:28;22.00;;;15.43;;
52306;SDS011;38249;48.920;12.882;2023-01-23T08:48:54;22.75;;;16.35;;
52306;SDS011;38249;48.920;12.882;2023-01-23T08:51:21;14.93;;;11.35;;
52306;SDS011;38249;48.920;12.882;2023-01-23T08:53:50;17.58;;;12.82;;
52306;SDS011;38249;48.920;12.882;2023-01-23T08:56:18;18.30;;;13.07;;
52306;SDS011;38249;48.920;12.882;2023-01-23T08:58:47;18.85;;;12.85;;
52306;SDS011;38249;48.920;12.882;2023-01-23T09:01:15;15.43;;;10.57;;
52306;SDS011;38249;48.920;12.882;2023-01-23T09:03:43;13.18;;;9.40;;
52306;SDS011;38249;48.920;12.882;2023-01-23T09:06:10;11.57;;;7.47;;
52306;SDS011;38249;48.920;12.882;2023-01-23T09:08:37;14.10;;;9.43;;
52306;SDS011;38249;48.920;12.882;2023-01-23T09:11:04;17.75;;;12.07;;
52306;SDS011;38249;48.920;12.882;2023-01-23T09:13:32;17.73;;;12.60;;
52306;SDS011;38249;48.920;12.882;2023-01-23T09:16:01;14.57;;;10.40;;
52306;SDS011;38249;48.920;12.882;2023-01-23T09:18:28;14.77;;;9.00;;
52306;SDS011;38249;48.920;12.882;2023-01-23T09:20:55;20.00;;;12.40;;
52306;SDS011;38249;48.920;12.882;2023-01-23T09:23:22;13.57;;;9.65;;
52306;SDS011;38249;48.920;12.882;2023-01-23T09:25:48;16.67;;;10.65;;
52306;SDS011;38249;48.920;12.882;2023-01-23T09:28:15;11.45;;;7.80;;
52306;SDS011;38249;48.920;12.882;2023-01-23T09:30:41;19.88;;;12.55;;
52306;SDS011;38249;48.920;12.882;2023-01-23T09:33:09;17.50;;;11.90;;
52306;SDS011;38249;48.920;12.882;2023-01-23T09:35:36;13.80;;;9.43;;
52306;SDS011;38249;48.920;12.882;2023-01-23T09:38:02;12.90;;;9.48;;
52306;SDS011;38249;48.920;12.882;2023-01-23T09:40:32;20.67;;;13.43;;
52306;SDS011;38249;48.920;12.882;2023-01-23T09:43:02;14.18;;;10.20;;
52306;SDS011;38249;48.920;12.882;2023-01-23T09:45:37;17.17;;;11.73;;
52306;SDS011;38249;48.920;12.882;2023-01-23T09:48:13;16.75;;;11.02;;
52306;SDS011;38249;48.920;12.882;2023-01-23T09:50:50;9.52;;;7.00;;
52306;SDS011;38249;48.920;12.882;2023-01-23T09:53:21;13.10;;;8.18;;
52306;SDS011;38249;48.920;12.882;2023-01-23T09:55:52;12.40;;;8.32;;
52306;SDS011;38249;48.920;12.882;2023-01-23T09:58:26;14.30;;;9.30;;
52306;SDS011;38249;48.920;12.882;2023-01-23T10:00:55;14.77;;;9.43;;
52306;SDS011;38249;48.920;12.882;2023-01-23T10:03:28;12.38;;;8.07;;
52306;SDS011;38249;48.920;12.882;2023-01-23T10:06:00;12.77;;;7.90;;
52306;SDS011;38249;48.920;12.882;2023-01-23T10:08:39;11.38;;;7.65;;
52306;SDS011;38249;48.920;12.882;2023-01-23T10:11:14;12.07;;;7.97;;
52306;SDS011;38249;48.920;12.882;2023-01-23T10:13:53;15.77;;;9.98;;
52306;SDS011;38249;48.920;12.882;2023-01-23T10:16:36;29.33;;;18.98;;
52306;SDS011;38249;48.920;12.882;2023-01-23T10:19:18;17.52;;;12.32;;
52306;SDS011;38249;48.920;12.882;2023-01-23T10:21:58;14.70;;;9.00;;
52306;SDS011;38249;48.920;12.882;2023-01-23T10:24:32;13.68;;;8.55;;
52306;SDS011;38249;48.920;12.882;2023-01-23T10:27:14;13.65;;;8.38;;
52306;SDS011;38249;48.920;12.882;2023-01-23T10:29:44;11.60;;;7.75;;
52306;SDS011;38249;48.920;12.882;2023-01-23T10:32:16;12.10;;;8.45;;
52306;SDS011;38249;48.920;12.882;2023-01-23T10:34:52;12.98;;;8.77;;
52306;SDS011;38249;48.920;12.882;2023-01-23T10:37:25;13.48;;;8.88;;
52306;SDS011;38249;48.920;12.882;2023-01-23T10:40:04;15.18;;;10.23;;
52306;SDS011;38249;48.920;12.882;2023-01-23T10:42:36;13.25;;;8.52;;
52306;SDS011;38249;48.920;12.882;2023-01-23T10:45:09;14.48;;;9.32;;
52306;SDS011;38249;48.920;12.882;2023-01-23T10:47:46;16.00;;;11.85;;
52306;SDS011;38249;48.920;12.882;2023-01-23T10:50:15;12.95;;;9.95;;
52306;SDS011;38249;48.920;12.882;2023-01-23T10:53:03;16.23;;;8.55;;
52306;SDS011;38249;48.920;12.882;2023-01-23T10:55:31;13.15;;;9.85;;
52306;SDS011;38249;48.920;12.882;2023-01-23T10:57:59;16.55;;;11.27;;
52306;SDS011;38249;48.920;12.882;2023-01-23T11:00:30;17.45;;;9.88;;
52306;SDS011;38249;48.920;12.882;2023-01-23T11:05:59;13.68;;;8.93;;
52306;SDS011;38249;48.920;12.882;2023-01-23T11:08:28;17.08;;;10.75;;
52306;SDS011;38249;48.920;12.882;2023-01-23T11:11:10;15.85;;;10.45;;
52306;SDS011;38249;48.920;12.882;2023-01-23T11:13:44;18.23;;;12.52;;
52306;SDS011;38249;48.920;12.882;2023-01-23T11:16:13;16.98;;;10.88;;
52306;SDS011;38249;48.920;12.882;2023-01-23T11:18:41;15.93;;;11.07;;
52306;SDS011;38249;48.920;12.882;2023-01-23T11:21:20;16.08;;;10.77;;
52306;SDS011;38249;48.920;12.882;2023-01-23T11:23:47;17.70;;;11.32;;
52306;SDS011;38249;48.920;12.882;2023-01-23T11:28:56;15.82;;;9.30;;
52306;SDS011;38249;48.920;12.882;2023-01-23T11:31:23;17.10;;;10.13;;
52306;SDS011;38249;48.920;12.882;2023-01-23T11:33:53;14.15;;;9.50;;
52306;SDS011;38249;48.920;12.882;2023-01-23T11:36:40;15.55;;;9.77;;
52306;SDS011;38249;48.920;12.882;2023-01-23T11:39:14;14.40;;;8.75;;
52306;SDS011;38249;48.920;12.882;2023-01-23T11:42:01;16.35;;;10.13;;
52306;SDS011;38249;48.920;12.882;2023-01-23T11:44:28;15.43;;;10.07;;
52306;SDS011;38249;48.920;12.882;2023-01-23T11:46:59;16.73;;;10.25;;
52306;SDS011;38249;48.920;12.882;2023-01-23T11:50:08;16.33;;;9.98;;
52306;SDS011;38249;48.920;12.882;2023-01-23T11:52:46;17.67;;;9.48;;
52306;SDS011;38249;48.920;12.882;2023-01-23T11:55:20;15.02;;;8.90;;
52306;SDS011;38249;48.920;12.882;2023-01-23T11:58:20;12.02;;;8.02;;
52306;SDS011;38249;48.920;12.882;2023-01-23T12:00:59;10.07;;;7.10;;
52306;SDS011;38249;48.920;12.882;2023-01-23T12:03:42;11.93;;;7.90;;
52306;SDS011;38249;48.920;12.882;2023-01-23T12:06:48;11.55;;;8.43;;
52306;SDS011;38249;48.920;12.882;2023-01-23T12:09:29;9.88;;;6.43;;
52306;SDS011;38249;48.920;12.882;2023-01-23T12:12:06;7.57;;;5.60;;
52306;SDS011;38249;48.920;12.882;2023-01-23T12:14:44;6.93;;;5.10;;
52306;SDS011;38249;48.920;12.882;2023-01-23T12:17:26;6.53;;;4.47;;
52306;SDS011;38249;48.920;12.882;2023-01-23T12:20:18;5.00;;;4.30;;
52306;SDS011;38249;48.920;12.882;2023-01-23T12:22:55;4.45;;;3.40;;
52306;SDS011;38249;48.920;12.882;2023-01-23T12:25:52;5.57;;;4.70;;
52306;SDS011;38249;48.920;12.882;2023-01-23T12:28:33;9.60;;;7.05;;
52306;SDS011;38249;48.920;12.882;2023-01-23T12:31:22;9.18;;;6.45;;
52306;SDS011;38249;48.920;12.882;2023-01-23T12:34:11;13.70;;;10.35;;
52306;SDS011;38249;48.920;12.882;2023-01-23T12:36:48;6.10;;;4.40;;
52306;SDS011;38249;48.920;12.882;2023-01-23T12:39:30;6.03;;;3.90;;
52306;SDS011;38249;48.920;12.882;2023-01-23T12:42:14;4.80;;;3.78;;
52306;SDS011;38249;48.920;12.882;2023-01-23T12:44:47;4.32;;;3.15;;
52306;SDS011;38249;48.920;12.882;2023-01-23T12:47:23;6.70;;;4.50;;
52306;SDS011;38249;48.920;12.882;2023-01-23T12:49:54;14.65;;;9.93;;
52306;SDS011;38249;48.920;12.882;2023-01-23T12:52:24;15.25;;;11.18;;
52306;SDS011;38249;48.920;12.882;2023-01-23T12:54:58;4.95;;;4.03;;
52306;SDS011;38249;48.920;12.882;2023-01-23T12:57:32;5.65;;;4.10;;
52306;SDS011;38249;48.920;12.882;2023-01-23T13:02:36;6.05;;;4.78;;
52306;SDS011;38249;48.920;12.882;2023-01-23T13:05:13;14.15;;;9.95;;
52306;SDS011;38249;48.920;12.882;2023-01-23T13:07:47;15.85;;;10.57;;
52306;SDS011;38249;48.920;12.882;2023-01-23T13:10:26;15.10;;;10.95;;
52306;SDS011;38249;48.920;12.882;2023-01-23T13:13:24;6.82;;;4.95;;
52306;SDS011;38249;48.920;12.882;2023-01-23T13:16:02;6.93;;;5.03;;
52306;SDS011;38249;48.920;12.882;2023-01-23T13:18:34;14.02;;;9.65;;
52306;SDS011;38249;48.920;12.882;2023-01-23T13:21:15;15.85;;;10.57;;
52306;SDS011;38249;48.920;12.882;2023-01-23T13:24:11;17.73;;;11.17;;
52306;SDS011;38249;48.920;12.882;2023-01-23T13:33:39;18.48;;;12.45;;
52306;SDS011;38249;48.920;12.882;2023-01-23T13:36:20;13.32;;;8.70;;
52306;SDS011;38249;48.920;12.882;2023-01-23T13:38:58;17.02;;;10.80;;
52306;SDS011;38249;48.920;12.882;2023-01-23T13:41:40;13.80;;;9.18;;
52306;SDS011;38249;48.920;12.882;2023-01-23T13:44:14;17.92;;;11.93;;
52306;SDS011;38249;48.920;12.882;2023-01-23T13:46:49;19.02;;;11.93;;
52306;SDS011;38249;48.920;12.882;2023-01-23T13:49:24;19.17;;;12.00;;
52306;SDS011;38249;48.920;12.882;2023-01-23T13:52:19;18.40;;;11.50;;
52306;SDS011;38249;48.920;12.882;2023-01-23T13:55:13;17.60;;;11.10;;
52306;SDS011;38249;48.920;12.882;2023-01-23T13:58:00;17.60;;;10.90;;
52306;SDS011;38249;48.920;12.882;2023-01-23T14:00:27;21.10;;;12.27;;
52306;SDS011;38249;48.920;12.882;2023-01-23T14:02:57;18.45;;;11.52;;
52306;SDS011;38249;48.920;12.882;2023-01-23T14:06:01;16.80;;;11.32;;
52306;SDS011;38249;48.920;12.882;2023-01-23T14:08:30;17.00;;;10.75;;
52306;SDS011;38249;48.920;12.882;2023-01-23T14:10:57;19.10;;;11.73;;
52306;SDS011;38249;48.920;12.882;2023-01-23T14:13:24;17.35;;;11.70;;
52306;SDS011;38249;48.920;12.882;2023-01-23T14:15:52;18.85;;;12.18;;
52306;SDS011;38249;48.920;12.882;2023-01-23T14:18:35;20.92;;;12.55;;
52306;SDS011;38249;48.920;12.882;2023-01-23T14:21:04;17.38;;;11.68;;
52306;SDS011;38249;48.920;12.882;2023-01-23T14:23:40;17.67;;;10.65;;
52306;SDS011;38249;48.920;12.882;2023-01-23T14:26:08;16.55;;;11.18;;
52306;SDS011;38249;48.920;12.882;2023-01-23T14:28:38;17.98;;;10.45;;
52306;SDS011;38249;48.920;12.882;2023-01-23T14:31:06;21.67;;;13.57;;
52306;SDS011;38249;48.920;12.882;2023-01-23T14:33:45;23.17;;;14.55;;
52306;SDS011;38249;48.920;12.882;2023-01-23T14:36:15;18.40;;;11.52;;
52306;SDS011;38249;48.920;12.882;2023-01-23T14:38:45;20.10;;;12.40;;
52306;SDS011;38249;48.920;12.882;2023-01-23T14:41:13;20.55;;;12.70;;
52306;SDS011;38249;48.920;12.882;2023-01-23T14:43:40;22.67;;;14.25;;
52306;SDS011;38249;48.920;12.882;2023-01-23T14:46:11;15.70;;;11.13;;
52306;SDS011;38249;48.920;12.882;2023-01-23T14:48:42;18.02;;;10.63;;
52306;SDS011;38249;48.920;12.882;2023-01-23T14:51:15;20.50;;;12.60;;
52306;SDS011;38249;48.920;12.882;2023-01-23T14:53:50;28.52;;;20.30;;